sensor_id;sensor_type;location;lat;lon;timestamp;P1;durP1;ratioP1;P2;durP2;ratioP2
57800;SDS011;43627;42.728;23.256;2022-12-29T00:00:17;28.95;;;16.63;;
57800;SDS011;43627;42.728;23.256;2022-12-29T00:02:44;24.58;;;15.07;;
57800;SDS011;43627;42.728;23.256;2022-12-29T00:05:11;26.73;;;14.98;;
57800;SDS011;43627;42.728;23.256;2022-12-29T00:07:38;32.28;;;15.43;;
57800;SDS011;43627;42.728;23.256;2022-12-29T00:10:04;29.45;;;16.65;;
57800;SDS011;43627;42.728;23.256;2022-12-29T00:12:32;29.00;;;15.48;;
57800;SDS011;43627;42.728;23.256;2022-12-29T00:15:18;30.30;;;16.27;;
57800;SDS011;43627;42.728;23.256;2022-12-29T00:18:03;32.42;;;16.20;;
57800;SDS011;43627;42.728;23.256;2022-12-29T00:20:32;28.77;;;16.05;;
57800;SDS011;43627;42.728;23.256;2022-12-29T00:23:19;28.42;;;15.60;;
57800;SDS011;43627;42.728;23.256;2022-12-29T00:26:07;28.13;;;15.27;;
57800;SDS011;43627;42.728;23.256;2022-12-29T00:29:07;30.83;;;16.38;;
57800;SDS011;43627;42.728;23.256;2022-12-29T00:31:52;29.67;;;15.70;;
57800;SDS011;43627;42.728;23.256;2022-12-29T00:34:38;29.25;;;15.93;;
57800;SDS011;43627;42.728;23.256;2022-12-29T00:37:23;31.83;;;15.95;;
57800;SDS011;43627;42.728;23.256;2022-12-29T00:40:10;38.40;;;20.25;;
57800;SDS011;43627;42.728;23.256;2022-12-29T00:43:00;47.97;;;24.08;;
57800;SDS011;43627;42.728;23.256;2022-12-29T00:45:45;48.05;;;26.30;;
57800;SDS011;43627;42.728;23.256;2022-12-29T00:48:12;46.72;;;25.27;;
57800;SDS011;43627;42.728;23.256;2022-12-29T00:50:39;49.38;;;24.10;;
57800;SDS011;43627;42.728;23.256;2022-12-29T00:53:06;50.38;;;24.77;;
57800;SDS011;43627;42.728;23.256;2022-12-29T00:55:36;46.25;;;23.98;;
57800;SDS011;43627;42.728;23.256;2022-12-29T00:58:03;53.38;;;25.25;;
57800;SDS011;43627;42.728;23.256;2022-12-29T01:00:30;49.53;;;25.27;;
57800;SDS011;43627;42.728;23.256;2022-12-29T01:02:56;45.47;;;23.17;;
57800;SDS011;43627;42.728;23.256;2022-12-29T01:05:23;45.85;;;21.92;;
57800;SDS011;43627;42.728;23.256;2022-12-29T01:07:50;38.97;;;20.65;;
57800;SDS011;43627;42.728;23.256;2022-12-29T01:10:16;44.97;;;23.10;;
57800;SDS011;43627;42.728;23.256;2022-12-29T01:12:43;48.58;;;22.60;;
57800;SDS011;43627;42.728;23.256;2022-12-29T01:15:12;44.53;;;23.27;;
57800;SDS011;43627;42.728;23.256;2022-12-29T01:17:41;44.47;;;22.33;;
57800;SDS011;43627;42.728;23.256;2022-12-29T01:20:08;46.25;;;22.40;;
57800;SDS011;43627;42.728;23.256;2022-12-29T01:22:37;48.03;;;22.65;;
57800;SDS011;43627;42.728;23.256;2022-12-29T01:25:04;46.03;;;21.40;;
57800;SDS011;43627;42.728;23.256;2022-12-29T01:27:32;40.28;;;21.65;;
57800;SDS011;43627;42.728;23.256;2022-12-29T01:29:59;38.83;;;20.45;;
57800;SDS011;43627;42.728;23.256;2022-12-29T01:32:25;42.03;;;22.48;;
57800;SDS011;43627;42.728;23.256;2022-12-29T01:34:52;40.33;;;20.42;;
57800;SDS011;43627;42.728;23.256;2022-12-29T01:37:19;36.13;;;20.00;;
57800;SDS011;43627;42.728;23.256;2022-12-29T01:39:45;32.10;;;18.25;;
57800;SDS011;43627;42.728;23.256;2022-12-29T01:42:16;38.00;;;18.73;;
57800;SDS011;43627;42.728;23.256;2022-12-29T01:49:56;34.58;;;18.55;;
57800;SDS011;43627;42.728;23.256;2022-12-29T01:52:26;37.38;;;20.15;;
57800;SDS011;43627;42.728;23.256;2022-12-29T01:54:55;39.65;;;19.77;;
57800;SDS011;43627;42.728;23.256;2022-12-29T01:57:28;39.08;;;19.05;;
57800;SDS011;43627;42.728;23.256;2022-12-29T02:00:05;45.15;;;21.67;;
57800;SDS011;43627;42.728;23.256;2022-12-29T02:02:35;43.08;;;20.98;;
57800;SDS011;43627;42.728;23.256;2022-12-29T02:08:00;38.35;;;16.15;;
57800;SDS011;43627;42.728;23.256;2022-12-29T02:10:28;40.40;;;17.77;;
57800;SDS011;43627;42.728;23.256;2022-12-29T02:12:57;37.55;;;18.80;;
57800;SDS011;43627;42.728;23.256;2022-12-29T02:15:32;39.78;;;18.92;;
57800;SDS011;43627;42.728;23.256;2022-12-29T02:27:29;26.65;;;15.52;;
57800;SDS011;43627;42.728;23.256;2022-12-29T02:30:05;34.95;;;17.73;;
57800;SDS011;43627;42.728;23.256;2022-12-29T02:32:46;34.83;;;18.88;;
57800;SDS011;43627;42.728;23.256;2022-12-29T02:47:19;34.67;;;20.88;;
57800;SDS011;43627;42.728;23.256;2022-12-29T02:52:37;39.13;;;18.73;;
57800;SDS011;43627;42.728;23.256;2022-12-29T02:55:11;35.70;;;20.45;;
57800;SDS011;43627;42.728;23.256;2022-12-29T02:57:37;43.10;;;20.73;;
57800;SDS011;43627;42.728;23.256;2022-12-29T03:00:06;37.47;;;19.65;;
57800;SDS011;43627;42.728;23.256;2022-12-29T03:05:39;29.40;;;18.15;;
57800;SDS011;43627;42.728;23.256;2022-12-29T03:08:54;33.22;;;17.77;;
57800;SDS011;43627;42.728;23.256;2022-12-29T03:11:29;36.58;;;18.23;;
57800;SDS011;43627;42.728;23.256;2022-12-29T03:17:25;32.55;;;16.80;;
57800;SDS011;43627;42.728;23.256;2022-12-29T03:19:54;35.72;;;18.55;;
57800;SDS011;43627;42.728;23.256;2022-12-29T03:22:28;31.75;;;17.10;;
57800;SDS011;43627;42.728;23.256;2022-12-29T03:28:01;34.90;;;18.85;;
57800;SDS011;43627;42.728;23.256;2022-12-29T03:30:34;29.30;;;17.95;;
57800;SDS011;43627;42.728;23.256;2022-12-29T03:33:03;29.55;;;16.55;;
57800;SDS011;43627;42.728;23.256;2022-12-29T03:35:34;32.10;;;18.05;;
57800;SDS011;43627;42.728;23.256;2022-12-29T03:40:39;33.40;;;17.73;;
57800;SDS011;43627;42.728;23.256;2022-12-29T03:43:10;33.30;;;18.48;;
57800;SDS011;43627;42.728;23.256;2022-12-29T03:45:39;37.72;;;17.45;;
57800;SDS011;43627;42.728;23.256;2022-12-29T03:48:06;34.17;;;18.70;;
57800;SDS011;43627;42.728;23.256;2022-12-29T03:50:33;40.08;;;19.45;;
57800;SDS011;43627;42.728;23.256;2022-12-29T03:53:00;32.63;;;17.90;;
57800;SDS011;43627;42.728;23.256;2022-12-29T03:55:26;31.02;;;17.63;;
57800;SDS011;43627;42.728;23.256;2022-12-29T03:57:53;38.65;;;19.75;;
57800;SDS011;43627;42.728;23.256;2022-12-29T04:00:20;39.60;;;21.90;;
57800;SDS011;43627;42.728;23.256;2022-12-29T04:02:47;39.22;;;20.77;;
57800;SDS011;43627;42.728;23.256;2022-12-29T04:05:14;39.17;;;21.58;;
57800;SDS011;43627;42.728;23.256;2022-12-29T04:07:40;40.85;;;22.70;;
57800;SDS011;43627;42.728;23.256;2022-12-29T04:10:07;41.22;;;21.48;;
57800;SDS011;43627;42.728;23.256;2022-12-29T04:12:34;39.63;;;21.70;;
57800;SDS011;43627;42.728;23.256;2022-12-29T04:15:01;43.92;;;22.95;;
57800;SDS011;43627;42.728;23.256;2022-12-29T04:17:28;46.53;;;24.02;;
57800;SDS011;43627;42.728;23.256;2022-12-29T04:19:54;41.70;;;24.27;;
57800;SDS011;43627;42.728;23.256;2022-12-29T04:22:41;44.13;;;22.08;;
57800;SDS011;43627;42.728;23.256;2022-12-29T04:25:08;42.38;;;23.90;;
57800;SDS011;43627;42.728;23.256;2022-12-29T04:27:35;40.97;;;22.77;;
57800;SDS011;43627;42.728;23.256;2022-12-29T04:30:02;45.75;;;23.98;;
57800;SDS011;43627;42.728;23.256;2022-12-29T04:32:29;39.22;;;22.27;;
57800;SDS011;43627;42.728;23.256;2022-12-29T04:34:55;41.00;;;21.52;;
57800;SDS011;43627;42.728;23.256;2022-12-29T04:37:22;38.35;;;21.05;;
57800;SDS011;43627;42.728;23.256;2022-12-29T04:39:49;39.38;;;21.77;;
57800;SDS011;43627;42.728;23.256;2022-12-29T04:42:15;39.22;;;22.10;;
57800;SDS011;43627;42.728;23.256;2022-12-29T04:44:43;39.63;;;21.42;;
57800;SDS011;43627;42.728;23.256;2022-12-29T04:47:10;38.42;;;21.67;;
57800;SDS011;43627;42.728;23.256;2022-12-29T04:49:37;38.80;;;20.40;;
57800;SDS011;43627;42.728;23.256;2022-12-29T04:52:04;39.78;;;22.23;;
57800;SDS011;43627;42.728;23.256;2022-12-29T04:54:30;53.17;;;26.55;;
57800;SDS011;43627;42.728;23.256;2022-12-29T04:56:57;50.90;;;24.80;;
57800;SDS011;43627;42.728;23.256;2022-12-29T04:59:24;46.75;;;24.90;;
57800;SDS011;43627;42.728;23.256;2022-12-29T05:01:50;48.55;;;23.45;;
57800;SDS011;43627;42.728;23.256;2022-12-29T05:04:17;39.92;;;22.35;;
57800;SDS011;43627;42.728;23.256;2022-12-29T05:06:44;38.50;;;21.85;;
57800;SDS011;43627;42.728;23.256;2022-12-29T05:09:11;36.83;;;20.98;;
57800;SDS011;43627;42.728;23.256;2022-12-29T05:11:37;35.80;;;20.42;;
57800;SDS011;43627;42.728;23.256;2022-12-29T05:14:04;37.75;;;20.17;;
57800;SDS011;43627;42.728;23.256;2022-12-29T05:16:31;36.30;;;20.98;;
57800;SDS011;43627;42.728;23.256;2022-12-29T05:18:58;40.03;;;20.15;;
57800;SDS011;43627;42.728;23.256;2022-12-29T05:21:25;40.33;;;20.27;;
57800;SDS011;43627;42.728;23.256;2022-12-29T05:23:52;39.15;;;21.08;;
57800;SDS011;43627;42.728;23.256;2022-12-29T05:26:18;40.42;;;21.98;;
57800;SDS011;43627;42.728;23.256;2022-12-29T05:28:45;34.95;;;20.73;;
57800;SDS011;43627;42.728;23.256;2022-12-29T05:31:12;35.85;;;20.73;;
57800;SDS011;43627;42.728;23.256;2022-12-29T05:33:39;39.95;;;22.08;;
57800;SDS011;43627;42.728;23.256;2022-12-29T05:36:06;44.28;;;21.90;;
57800;SDS011;43627;42.728;23.256;2022-12-29T05:38:34;40.75;;;21.77;;
57800;SDS011;43627;42.728;23.256;2022-12-29T05:41:01;40.40;;;22.25;;
57800;SDS011;43627;42.728;23.256;2022-12-29T05:43:28;39.85;;;22.30;;
57800;SDS011;43627;42.728;23.256;2022-12-29T05:45:56;42.45;;;22.95;;
57800;SDS011;43627;42.728;23.256;2022-12-29T05:48:23;54.03;;;22.40;;
57800;SDS011;43627;42.728;23.256;2022-12-29T05:50:50;41.72;;;22.70;;
57800;SDS011;43627;42.728;23.256;2022-12-29T05:53:17;48.10;;;24.40;;
57800;SDS011;43627;42.728;23.256;2022-12-29T05:55:46;49.30;;;26.23;;
57800;SDS011;43627;42.728;23.256;2022-12-29T05:58:15;55.25;;;27.55;;
57800;SDS011;43627;42.728;23.256;2022-12-29T06:00:42;56.17;;;27.75;;
57800;SDS011;43627;42.728;23.256;2022-12-29T06:03:10;54.60;;;27.95;;
57800;SDS011;43627;42.728;23.256;2022-12-29T06:05:37;59.03;;;28.27;;
57800;SDS011;43627;42.728;23.256;2022-12-29T06:08:04;54.78;;;28.10;;
57800;SDS011;43627;42.728;23.256;2022-12-29T06:10:30;52.50;;;26.20;;
57800;SDS011;43627;42.728;23.256;2022-12-29T06:12:57;47.10;;;25.73;;
57800;SDS011;43627;42.728;23.256;2022-12-29T06:15:24;47.67;;;26.83;;
57800;SDS011;43627;42.728;23.256;2022-12-29T06:17:51;46.53;;;24.85;;
57800;SDS011;43627;42.728;23.256;2022-12-29T06:20:18;43.08;;;23.58;;
57800;SDS011;43627;42.728;23.256;2022-12-29T06:22:44;38.47;;;22.33;;
57800;SDS011;43627;42.728;23.256;2022-12-29T06:25:12;44.20;;;24.67;;
57800;SDS011;43627;42.728;23.256;2022-12-29T06:27:39;40.15;;;22.90;;
57800;SDS011;43627;42.728;23.256;2022-12-29T06:30:06;42.17;;;22.58;;
57800;SDS011;43627;42.728;23.256;2022-12-29T06:32:33;46.83;;;25.27;;
57800;SDS011;43627;42.728;23.256;2022-12-29T06:34:59;44.50;;;23.27;;
57800;SDS011;43627;42.728;23.256;2022-12-29T06:37:26;52.83;;;25.73;;
57800;SDS011;43627;42.728;23.256;2022-12-29T06:39:53;45.03;;;24.95;;
57800;SDS011;43627;42.728;23.256;2022-12-29T06:42:20;47.70;;;25.58;;
57800;SDS011;43627;42.728;23.256;2022-12-29T06:44:47;44.47;;;24.90;;
57800;SDS011;43627;42.728;23.256;2022-12-29T06:47:13;46.45;;;25.25;;
57800;SDS011;43627;42.728;23.256;2022-12-29T06:49:40;45.95;;;24.77;;
57800;SDS011;43627;42.728;23.256;2022-12-29T06:52:07;46.35;;;24.65;;
57800;SDS011;43627;42.728;23.256;2022-12-29T06:54:38;49.38;;;23.88;;
57800;SDS011;43627;42.728;23.256;2022-12-29T06:57:05;40.35;;;21.85;;
57800;SDS011;43627;42.728;23.256;2022-12-29T06:59:32;42.22;;;22.92;;
57800;SDS011;43627;42.728;23.256;2022-12-29T07:01:59;43.50;;;23.45;;
57800;SDS011;43627;42.728;23.256;2022-12-29T07:04:28;42.65;;;23.45;;
57800;SDS011;43627;42.728;23.256;2022-12-29T07:06:55;44.30;;;22.60;;
57800;SDS011;43627;42.728;23.256;2022-12-29T07:09:22;48.53;;;24.65;;
57800;SDS011;43627;42.728;23.256;2022-12-29T07:11:48;39.78;;;23.50;;
57800;SDS011;43627;42.728;23.256;2022-12-29T07:14:15;40.40;;;21.60;;
57800;SDS011;43627;42.728;23.256;2022-12-29T07:16:41;45.20;;;24.35;;
57800;SDS011;43627;42.728;23.256;2022-12-29T07:19:08;46.92;;;25.58;;
57800;SDS011;43627;42.728;23.256;2022-12-29T07:21:35;44.45;;;26.05;;
57800;SDS011;43627;42.728;23.256;2022-12-29T07:24:02;43.50;;;24.27;;
57800;SDS011;43627;42.728;23.256;2022-12-29T07:26:29;33.90;;;20.35;;
57800;SDS011;43627;42.728;23.256;2022-12-29T07:29:02;35.03;;;19.85;;
57800;SDS011;43627;42.728;23.256;2022-12-29T07:31:29;38.92;;;20.80;;
57800;SDS011;43627;42.728;23.256;2022-12-29T07:33:57;31.13;;;19.58;;
57800;SDS011;43627;42.728;23.256;2022-12-29T07:36:24;43.45;;;18.98;;
57800;SDS011;43627;42.728;23.256;2022-12-29T07:38:59;34.58;;;19.45;;
57800;SDS011;43627;42.728;23.256;2022-12-29T07:41:25;38.38;;;19.75;;
57800;SDS011;43627;42.728;23.256;2022-12-29T07:43:52;38.35;;;19.52;;
57800;SDS011;43627;42.728;23.256;2022-12-29T07:46:19;34.08;;;19.40;;
57800;SDS011;43627;42.728;23.256;2022-12-29T07:49:06;33.35;;;19.88;;
57800;SDS011;43627;42.728;23.256;2022-12-29T07:51:33;38.95;;;19.98;;
57800;SDS011;43627;42.728;23.256;2022-12-29T07:54:00;43.42;;;20.30;;
57800;SDS011;43627;42.728;23.256;2022-12-29T07:56:27;39.65;;;20.65;;
57800;SDS011;43627;42.728;23.256;2022-12-29T07:58:53;34.47;;;20.83;;
57800;SDS011;43627;42.728;23.256;2022-12-29T08:01:20;36.85;;;20.17;;
57800;SDS011;43627;42.728;23.256;2022-12-29T08:03:49;36.50;;;19.40;;
57800;SDS011;43627;42.728;23.256;2022-12-29T08:06:22;35.30;;;19.60;;
57800;SDS011;43627;42.728;23.256;2022-12-29T08:08:49;39.95;;;21.35;;
57800;SDS011;43627;42.728;23.256;2022-12-29T08:11:16;39.20;;;19.40;;
57800;SDS011;43627;42.728;23.256;2022-12-29T08:13:42;41.15;;;20.50;;
57800;SDS011;43627;42.728;23.256;2022-12-29T08:16:09;33.47;;;17.45;;
57800;SDS011;43627;42.728;23.256;2022-12-29T08:18:36;41.80;;;19.38;;
57800;SDS011;43627;42.728;23.256;2022-12-29T08:21:03;33.80;;;18.27;;
57800;SDS011;43627;42.728;23.256;2022-12-29T08:23:30;38.85;;;18.20;;
57800;SDS011;43627;42.728;23.256;2022-12-29T08:26:01;33.92;;;19.45;;
57800;SDS011;43627;42.728;23.256;2022-12-29T08:28:30;34.70;;;18.63;;
57800;SDS011;43627;42.728;23.256;2022-12-29T08:30:58;43.70;;;19.92;;
57800;SDS011;43627;42.728;23.256;2022-12-29T08:33:26;39.90;;;21.42;;
57800;SDS011;43627;42.728;23.256;2022-12-29T08:36:04;45.72;;;25.02;;
57800;SDS011;43627;42.728;23.256;2022-12-29T08:38:32;33.42;;;20.23;;
57800;SDS011;43627;42.728;23.256;2022-12-29T08:40:59;35.50;;;21.08;;
57800;SDS011;43627;42.728;23.256;2022-12-29T08:43:29;38.67;;;20.48;;
57800;SDS011;43627;42.728;23.256;2022-12-29T08:45:59;37.28;;;20.25;;
57800;SDS011;43627;42.728;23.256;2022-12-29T08:48:26;52.33;;;19.98;;
57800;SDS011;43627;42.728;23.256;2022-12-29T08:50:53;37.88;;;19.13;;
57800;SDS011;43627;42.728;23.256;2022-12-29T08:53:20;30.58;;;17.73;;
57800;SDS011;43627;42.728;23.256;2022-12-29T08:55:47;31.88;;;19.70;;
57800;SDS011;43627;42.728;23.256;2022-12-29T09:00:56;36.53;;;18.40;;
57800;SDS011;43627;42.728;23.256;2022-12-29T09:03:24;37.38;;;20.23;;
57800;SDS011;43627;42.728;23.256;2022-12-29T09:06:11;36.65;;;19.30;;
57800;SDS011;43627;42.728;23.256;2022-12-29T09:08:38;35.45;;;19.83;;
57800;SDS011;43627;42.728;23.256;2022-12-29T09:11:09;38.78;;;20.05;;
57800;SDS011;43627;42.728;23.256;2022-12-29T09:13:39;37.92;;;19.73;;
57800;SDS011;43627;42.728;23.256;2022-12-29T09:16:05;37.78;;;20.30;;
57800;SDS011;43627;42.728;23.256;2022-12-29T09:18:33;38.22;;;21.30;;
57800;SDS011;43627;42.728;23.256;2022-12-29T09:21:01;38.30;;;20.77;;
57800;SDS011;43627;42.728;23.256;2022-12-29T09:23:29;38.17;;;20.83;;
57800;SDS011;43627;42.728;23.256;2022-12-29T09:25:56;38.15;;;19.65;;
57800;SDS011;43627;42.728;23.256;2022-12-29T09:28:23;34.63;;;18.15;;
57800;SDS011;43627;42.728;23.256;2022-12-29T09:30:50;32.03;;;19.10;;
57800;SDS011;43627;42.728;23.256;2022-12-29T09:33:17;42.78;;;20.52;;
57800;SDS011;43627;42.728;23.256;2022-12-29T09:35:44;40.65;;;20.88;;
57800;SDS011;43627;42.728;23.256;2022-12-29T09:38:16;34.85;;;19.45;;
57800;SDS011;43627;42.728;23.256;2022-12-29T09:40:44;37.95;;;19.42;;
57800;SDS011;43627;42.728;23.256;2022-12-29T09:43:24;38.58;;;19.17;;
57800;SDS011;43627;42.728;23.256;2022-12-29T09:51:39;30.33;;;18.63;;
57800;SDS011;43627;42.728;23.256;2022-12-29T09:57:01;32.38;;;17.30;;
57800;SDS011;43627;42.728;23.256;2022-12-29T09:59:38;40.60;;;18.73;;
57800;SDS011;43627;42.728;23.256;2022-12-29T10:02:16;39.35;;;18.10;;
57800;SDS011;43627;42.728;23.256;2022-12-29T10:04:47;34.40;;;18.85;;
57800;SDS011;43627;42.728;23.256;2022-12-29T10:07:21;28.52;;;15.55;;
57800;SDS011;43627;42.728;23.256;2022-12-29T10:21:22;30.77;;;16.50;;
57800;SDS011;43627;42.728;23.256;2022-12-29T10:24:16;39.10;;;18.80;;
57800;SDS011;43627;42.728;23.256;2022-12-29T10:26:45;35.67;;;16.27;;
57800;SDS011;43627;42.728;23.256;2022-12-29T10:29:16;34.88;;;17.23;;
57800;SDS011;43627;42.728;23.256;2022-12-29T10:34:41;44.05;;;21.17;;
57800;SDS011;43627;42.728;23.256;2022-12-29T10:39:45;36.13;;;17.75;;
57800;SDS011;43627;42.728;23.256;2022-12-29T10:42:20;30.70;;;17.38;;
57800;SDS011;43627;42.728;23.256;2022-12-29T10:45:03;26.88;;;16.15;;
57800;SDS011;43627;42.728;23.256;2022-12-29T10:47:33;32.25;;;15.80;;
57800;SDS011;43627;42.728;23.256;2022-12-29T10:52:31;29.27;;;15.25;;
57800;SDS011;43627;42.728;23.256;2022-12-29T10:55:03;34.05;;;16.83;;
57800;SDS011;43627;42.728;23.256;2022-12-29T10:57:40;25.45;;;15.60;;
57800;SDS011;43627;42.728;23.256;2022-12-29T11:00:14;31.13;;;17.00;;
57800;SDS011;43627;42.728;23.256;2022-12-29T11:08:20;30.90;;;16.55;;
57800;SDS011;43627;42.728;23.256;2022-12-29T11:10:58;37.40;;;16.55;;
57800;SDS011;43627;42.728;23.256;2022-12-29T11:13:28;34.75;;;14.68;;
57800;SDS011;43627;42.728;23.256;2022-12-29T11:16:04;30.42;;;16.77;;
57800;SDS011;43627;42.728;23.256;2022-12-29T11:21:07;27.42;;;15.02;;
57800;SDS011;43627;42.728;23.256;2022-12-29T11:23:55;32.03;;;15.65;;
57800;SDS011;43627;42.728;23.256;2022-12-29T11:26:28;29.98;;;15.55;;
57800;SDS011;43627;42.728;23.256;2022-12-29T11:31:55;26.15;;;14.88;;
57800;SDS011;43627;42.728;23.256;2022-12-29T11:34:27;30.35;;;15.95;;
57800;SDS011;43627;42.728;23.256;2022-12-29T11:37:05;27.27;;;15.40;;
57800;SDS011;43627;42.728;23.256;2022-12-29T11:42:28;29.10;;;14.63;;
57800;SDS011;43627;42.728;23.256;2022-12-29T11:45:18;32.92;;;15.13;;
57800;SDS011;43627;42.728;23.256;2022-12-29T11:47:47;30.58;;;14.57;;
57800;SDS011;43627;42.728;23.256;2022-12-29T11:50:20;30.70;;;15.63;;
57800;SDS011;43627;42.728;23.256;2022-12-29T11:52:50;27.15;;;15.23;;
57800;SDS011;43627;42.728;23.256;2022-12-29T11:55:24;32.75;;;14.40;;
57800;SDS011;43627;42.728;23.256;2022-12-29T11:57:52;32.58;;;14.55;;
57800;SDS011;43627;42.728;23.256;2022-12-29T12:00:22;32.10;;;16.00;;
57800;SDS011;43627;42.728;23.256;2022-12-29T12:03:04;27.95;;;14.80;;
57800;SDS011;43627;42.728;23.256;2022-12-29T12:05:56;25.50;;;14.68;;
57800;SDS011;43627;42.728;23.256;2022-12-29T12:11:04;22.67;;;13.43;;
57800;SDS011;43627;42.728;23.256;2022-12-29T12:14:12;31.45;;;14.18;;
57800;SDS011;43627;42.728;23.256;2022-12-29T12:16:48;34.83;;;15.82;;
57800;SDS011;43627;42.728;23.256;2022-12-29T12:19:23;28.77;;;14.90;;
57800;SDS011;43627;42.728;23.256;2022-12-29T12:25:11;30.25;;;14.57;;
57800;SDS011;43627;42.728;23.256;2022-12-29T12:28:11;32.20;;;13.80;;
57800;SDS011;43627;42.728;23.256;2022-12-29T12:30:43;25.75;;;13.88;;
57800;SDS011;43627;42.728;23.256;2022-12-29T12:33:19;25.00;;;13.05;;
57800;SDS011;43627;42.728;23.256;2022-12-29T12:39:18;31.90;;;14.13;;
57800;SDS011;43627;42.728;23.256;2022-12-29T12:42:20;26.27;;;14.10;;
57800;SDS011;43627;42.728;23.256;2022-12-29T12:45:38;34.35;;;15.05;;
57800;SDS011;43627;42.728;23.256;2022-12-29T13:07:29;30.13;;;15.55;;
57800;SDS011;43627;42.728;23.256;2022-12-29T13:13:27;34.75;;;17.20;;
57800;SDS011;43627;42.728;23.256;2022-12-29T13:16:15;30.00;;;17.45;;
57800;SDS011;43627;42.728;23.256;2022-12-29T13:35:31;42.93;;;17.73;;
57800;SDS011;43627;42.728;23.256;2022-12-29T13:38:13;35.25;;;17.75;;
57800;SDS011;43627;42.728;23.256;2022-12-29T13:40:49;44.38;;;17.73;;
57800;SDS011;43627;42.728;23.256;2022-12-29T13:43:21;39.30;;;17.42;;
57800;SDS011;43627;42.728;23.256;2022-12-29T13:45:50;34.38;;;17.73;;
57800;SDS011;43627;42.728;23.256;2022-12-29T13:48:28;32.38;;;18.52;;
57800;SDS011;43627;42.728;23.256;2022-12-29T13:51:03;39.75;;;17.55;;
57800;SDS011;43627;42.728;23.256;2022-12-29T13:53:47;32.67;;;18.08;;
57800;SDS011;43627;42.728;23.256;2022-12-29T13:56:54;37.63;;;17.50;;
57800;SDS011;43627;42.728;23.256;2022-12-29T14:02:42;43.28;;;18.27;;
57800;SDS011;43627;42.728;23.256;2022-12-29T14:07:46;36.90;;;16.75;;
57800;SDS011;43627;42.728;23.256;2022-12-29T14:13:03;34.15;;;19.20;;
57800;SDS011;43627;42.728;23.256;2022-12-29T14:15:30;40.70;;;20.48;;
57800;SDS011;43627;42.728;23.256;2022-12-29T14:18:02;34.30;;;19.33;;
57800;SDS011;43627;42.728;23.256;2022-12-29T14:20:32;36.80;;;18.67;;
57800;SDS011;43627;42.728;23.256;2022-12-29T14:28:37;39.25;;;18.27;;
57800;SDS011;43627;42.728;23.256;2022-12-29T14:31:05;47.03;;;19.83;;
57800;SDS011;43627;42.728;23.256;2022-12-29T14:33:33;37.78;;;18.52;;
57800;SDS011;43627;42.728;23.256;2022-12-29T14:39:01;37.97;;;18.42;;
57800;SDS011;43627;42.728;23.256;2022-12-29T14:41:35;34.08;;;19.67;;
57800;SDS011;43627;42.728;23.256;2022-12-29T14:44:17;39.42;;;19.65;;
57800;SDS011;43627;42.728;23.256;2022-12-29T14:46:47;38.08;;;19.15;;
57800;SDS011;43627;42.728;23.256;2022-12-29T14:49:24;40.63;;;19.25;;
57800;SDS011;43627;42.728;23.256;2022-12-29T14:52:03;33.53;;;18.98;;
57800;SDS011;43627;42.728;23.256;2022-12-29T14:54:52;39.20;;;20.05;;
57800;SDS011;43627;42.728;23.256;2022-12-29T14:57:34;41.08;;;19.98;;
57800;SDS011;43627;42.728;23.256;2022-12-29T15:03:36;35.17;;;20.15;;
57800;SDS011;43627;42.728;23.256;2022-12-29T15:05:47;36.50;;;19.48;;
57800;SDS011;43627;42.728;23.256;2022-12-29T15:08:18;42.53;;;20.35;;
57800;SDS011;43627;42.728;23.256;2022-12-29T15:10:48;43.83;;;20.98;;
57800;SDS011;43627;42.728;23.256;2022-12-29T15:13:22;53.45;;;21.30;;
57800;SDS011;43627;42.728;23.256;2022-12-29T15:15:51;47.97;;;20.75;;
57800;SDS011;43627;42.728;23.256;2022-12-29T15:18:28;45.92;;;21.95;;
57800;SDS011;43627;42.728;23.256;2022-12-29T15:20:57;49.60;;;23.58;;
57800;SDS011;43627;42.728;23.256;2022-12-29T15:23:30;43.22;;;22.25;;
57800;SDS011;43627;42.728;23.256;2022-12-29T15:25:59;45.05;;;23.10;;
57800;SDS011;43627;42.728;23.256;2022-12-29T15:28:40;47.90;;;23.90;;
57800;SDS011;43627;42.728;23.256;2022-12-29T15:31:12;56.95;;;25.27;;
57800;SDS011;43627;42.728;23.256;2022-12-29T15:34:03;69.07;;;28.25;;
57800;SDS011;43627;42.728;23.256;2022-12-29T15:36:38;65.30;;;28.27;;
57800;SDS011;43627;42.728;23.256;2022-12-29T15:39:27;64.30;;;29.55;;
57800;SDS011;43627;42.728;23.256;2022-12-29T15:42:23;58.67;;;29.58;;
57800;SDS011;43627;42.728;23.256;2022-12-29T15:45:10;57.17;;;29.33;;
57800;SDS011;43627;42.728;23.256;2022-12-29T15:47:39;77.45;;;31.13;;
57800;SDS011;43627;42.728;23.256;2022-12-29T15:50:27;68.07;;;33.90;;
57800;SDS011;43627;42.728;23.256;2022-12-29T15:52:56;71.30;;;31.85;;
57800;SDS011;43627;42.728;23.256;2022-12-29T15:55:26;64.75;;;34.50;;
57800;SDS011;43627;42.728;23.256;2022-12-29T15:57:58;82.03;;;33.42;;
57800;SDS011;43627;42.728;23.256;2022-12-29T16:00:33;71.00;;;31.90;;
57800;SDS011;43627;42.728;23.256;2022-12-29T16:03:04;78.10;;;34.53;;
57800;SDS011;43627;42.728;23.256;2022-12-29T16:05:39;72.13;;;30.75;;
57800;SDS011;43627;42.728;23.256;2022-12-29T16:08:27;73.90;;;35.08;;
57800;SDS011;43627;42.728;23.256;2022-12-29T16:10:59;67.50;;;31.33;;
57800;SDS011;43627;42.728;23.256;2022-12-29T16:13:29;229.65;;;110.32;;
57800;SDS011;43627;42.728;23.256;2022-12-29T16:16:09;126.68;;;65.85;;
57800;SDS011;43627;42.728;23.256;2022-12-29T16:18:44;125.05;;;55.80;;
57800;SDS011;43627;42.728;23.256;2022-12-29T16:21:33;119.60;;;52.28;;
57800;SDS011;43627;42.728;23.256;2022-12-29T16:24:02;116.25;;;53.22;;
57800;SDS011;43627;42.728;23.256;2022-12-29T16:26:33;149.80;;;60.60;;
57800;SDS011;43627;42.728;23.256;2022-12-29T16:29:01;156.02;;;66.35;;
57800;SDS011;43627;42.728;23.256;2022-12-29T16:31:35;229.80;;;102.82;;
57800;SDS011;43627;42.728;23.256;2022-12-29T16:34:23;202.90;;;94.00;;
57800;SDS011;43627;42.728;23.256;2022-12-29T16:36:55;197.23;;;85.40;;
57800;SDS011;43627;42.728;23.256;2022-12-29T16:39:51;235.70;;;113.65;;
57800;SDS011;43627;42.728;23.256;2022-12-29T16:48:09;108.80;;;52.75;;
57800;SDS011;43627;42.728;23.256;2022-12-29T16:50:46;138.40;;;54.78;;
57800;SDS011;43627;42.728;23.256;2022-12-29T16:53:24;122.75;;;59.80;;
57800;SDS011;43627;42.728;23.256;2022-12-29T16:55:52;126.93;;;58.75;;
57800;SDS011;43627;42.728;23.256;2022-12-29T16:58:21;133.45;;;54.38;;
57800;SDS011;43627;42.728;23.256;2022-12-29T17:00:57;126.70;;;59.13;;
57800;SDS011;43627;42.728;23.256;2022-12-29T17:03:31;107.80;;;50.38;;
57800;SDS011;43627;42.728;23.256;2022-12-29T17:06:02;157.68;;;68.25;;
57800;SDS011;43627;42.728;23.256;2022-12-29T17:08:29;134.00;;;67.05;;
57800;SDS011;43627;42.728;23.256;2022-12-29T17:11:04;144.55;;;66.85;;
57800;SDS011;43627;42.728;23.256;2022-12-29T17:13:49;94.20;;;48.17;;
57800;SDS011;43627;42.728;23.256;2022-12-29T17:16:16;113.60;;;53.63;;
57800;SDS011;43627;42.728;23.256;2022-12-29T17:18:42;107.45;;;53.72;;